sim
Sign-in with your pilot id or email,
or register
Callsign
Passwort

Schedule Details

Flight Number: DLH2263 (1)
Departure: Marseille Provence Airport (LFML) at 12:20
Arrival: Munich Airport (EDDM) at 13:55
Route: Lufthansa Passenger Schedule. Enter filed route here before submitting Pirep.

Weather Information
Getting current METAR information for LFML 242100Z AUTO 32007KT CAVOK 21/18 Q1007 TEMPO VRB15G25KT 4000 SHRA SCT040TCU
Getting current METAR information for EDDM 242050Z 11005KT CAVOK 16/14 Q1003 NOSIG

Schedule Frequency

Route Map